Time;durP1;ratioP1;P1;durP2;ratioP2;P2;SDS_P1;SDS_P2;PMS_P1;PMS_P2;Temp;Humidity;BMP_temperature;BMP_pressure;BME280_temperature;BME280_humidity;BME280_pressure;Samples;Min_cycle;Max_cycle;Signal;HPM_P1;HPM_P2
2022/09/19 00:00:11;;;;;;;0.53;0.53;;;8.50;99.90;9.40;96318.00;;;;5032720;28;20268;-88
2022/09/19 00:03:00;;;;;;;0.70;0.70;;;8.50;99.90;9.10;96311.00;;;;5031846;28;20201;-88
2022/09/19 00:05:49;;;;;;;0.57;0.57;;;8.50;99.90;9.40;96318.00;;;;5039510;28;20201;-88
2022/09/19 00:08:41;;;;;;;0.50;0.50;;;8.40;99.90;9.70;96321.00;;;;5045164;28;20233;-88
2022/09/19 00:11:29;;;;;;;2.33;0.70;;;8.50;99.90;9.30;96313.00;;;;5047097;28;20247;-89
2022/09/19 00:14:23;;;;;;;0.40;0.40;;;8.50;99.90;9.30;96310.00;;;;5047736;28;20220;-88
2022/09/19 00:17:12;;;;;;;0.60;0.60;;;8.50;99.90;9.50;96308.00;;;;5047229;28;20197;-88
2022/09/19 00:20:01;;;;;;;1.70;0.40;;;8.50;99.90;9.60;96311.00;;;;5034434;28;20213;-88
2022/09/19 00:26:01;;;;;;;1.67;0.50;;;8.50;99.90;9.80;96323.00;;;;5046875;28;20247;-88
2022/09/19 00:28:49;;;;;;;1.13;0.50;;;8.60;99.90;10.20;96314.00;;;;5043229;28;20204;-89
2022/09/19 00:31:38;;;;;;;1.23;0.50;;;8.80;99.90;10.30;96324.00;;;;5031226;28;20224;-87
2022/09/19 00:34:28;;;;;;;1.03;0.70;;;8.90;99.90;10.30;96327.00;;;;5032556;28;20201;-88
2022/09/19 00:37:19;;;;;;;0.40;0.40;;;9.00;99.90;10.00;96310.00;;;;5037447;28;20237;-87
2022/09/19 00:40:09;;;;;;;0.40;0.40;;;9.00;99.90;10.20;96317.00;;;;5046714;28;20219;-88
2022/09/19 00:43:00;;;;;;;0.50;0.50;;;9.00;99.90;10.30;96324.00;;;;5040015;28;20198;-88
2022/09/19 00:45:49;;;;;;;0.87;0.67;;;9.00;99.90;10.30;96310.00;;;;5034234;28;20205;-88
2022/09/19 00:48:40;;;;;;;0.50;0.50;;;9.10;99.90;10.20;96312.00;;;;5035120;28;20194;-87
2022/09/19 00:51:33;;;;;;;0.53;0.47;;;9.10;99.90;10.30;96321.00;;;;5036375;28;20225;-88
2022/09/19 00:54:29;;;;;;;0.73;0.60;;;9.10;99.90;10.10;96320.00;;;;5031269;28;20232;-88
2022/09/19 00:57:19;;;;;;;0.73;0.50;;;9.10;99.90;10.20;96309.00;;;;5030489;28;20202;-88
2022/09/19 01:00:11;;;;;;;0.50;0.50;;;9.10;99.90;9.90;96314.00;;;;5039273;28;20223;-88
2022/09/19 01:03:00;;;;;;;1.47;0.60;;;9.00;99.90;10.20;96302.00;;;;5043272;28;20204;-88
2022/09/19 01:05:59;;;;;;;2.00;0.70;;;9.00;99.90;10.00;96300.00;;;;5031534;28;20201;-88
2022/09/19 01:09:27;;;;;;;0.57;0.57;;;9.00;99.90;9.70;96294.00;;;;5033814;28;20563;-87
2022/09/19 01:12:28;;;;;;;0.40;0.40;;;8.90;99.90;9.70;96301.00;;;;5028475;28;20549;-88
2022/09/19 01:15:32;;;;;;;0.70;0.60;;;8.80;99.90;9.80;96292.00;;;;5030281;28;20205;-88
2022/09/19 01:18:27;;;;;;;2.87;0.60;;;8.80;99.90;9.80;96296.00;;;;5043182;28;20208;-88
2022/09/19 01:21:40;;;;;;;2.30;0.60;;;8.80;99.90;10.00;96293.00;;;;5028948;28;20229;-88
2022/09/19 01:24:56;;;;;;;1.90;0.77;;;8.80;99.90;9.80;96288.00;;;;5030603;28;20193;-88
2022/09/19 01:28:09;;;;;;;0.70;0.60;;;8.80;99.90;9.60;96278.00;;;;5038658;28;20237;-88
2022/09/19 01:31:18;;;;;;;0.43;0.43;;;8.70;99.90;9.50;96276.00;;;;5031189;28;20246;-88
2022/09/19 01:34:12;;;;;;;0.67;0.50;;;8.70;99.90;9.90;96265.00;;;;5032549;28;20196;-88
2022/09/19 01:37:07;;;;;;;2.23;0.70;;;8.70;99.90;9.60;96264.00;;;;5034187;28;20212;-88
2022/09/19 01:39:58;;;;;;;1.47;0.80;;;8.80;99.90;10.00;96268.00;;;;5035929;28;20197;-87
2022/09/19 01:42:54;;;;;;;0.53;0.53;;;8.80;99.90;10.20;96263.00;;;;5037796;28;20240;-88
2022/09/19 01:45:45;;;;;;;1.13;0.87;;;8.90;99.90;9.80;96259.00;;;;5040113;28;20587;-88
2022/09/19 01:48:43;;;;;;;0.50;0.50;;;8.90;99.90;9.30;96266.00;;;;5039151;28;20198;-88
2022/09/19 01:51:37;;;;;;;0.80;0.50;;;8.80;99.90;9.60;96267.00;;;;5040990;28;20729;-89
2022/09/19 01:54:43;;;;;;;0.70;0.70;;;8.70;99.90;9.90;96264.00;;;;5044771;28;20712;-88
2022/09/19 01:57:41;;;;;;;0.50;0.50;;;8.70;99.90;9.90;96258.00;;;;5042534;28;20240;-88
2022/09/19 02:00:30;;;;;;;0.67;0.67;;;8.80;99.90;9.90;96260.00;;;;5035935;28;20601;-87
2022/09/19 02:03:36;;;;;;;0.97;0.50;;;8.80;99.90;9.80;96259.00;;;;5039006;28;20218;-89
2022/09/19 02:06:35;;;;;;;2.63;0.60;;;8.90;99.90;9.90;96249.00;;;;5042030;28;20208;-90
2022/09/19 02:09:29;;;;;;;1.40;0.87;;;8.90;99.90;10.10;96249.00;;;;5046318;28;20198;-90
2022/09/19 02:12:22;;;;;;;1.43;0.50;;;8.90;99.90;10.10;96248.00;;;;5043364;28;20209;-90
2022/09/19 02:15:13;;;;;;;0.60;0.60;;;8.90;99.90;10.10;96253.00;;;;5043565;28;20234;-89
2022/09/19 02:18:10;;;;;;;2.27;0.90;;;8.90;99.90;10.00;96247.00;;;;5043520;28;20212;-90
2022/09/19 02:21:07;;;;;;;1.47;0.83;;;8.90;99.90;10.20;96245.00;;;;5039288;28;20220;-90
2022/09/19 02:23:59;;;;;;;4.23;0.67;;;8.90;99.90;10.30;96240.00;;;;5040555;28;20193;-90
2022/09/19 02:26:51;;;;;;;0.70;0.70;;;9.00;99.90;10.30;96232.00;;;;5049668;28;20693;-90
2022/09/19 02:29:45;;;;;;;0.67;0.50;;;9.00;99.90;10.10;96234.00;;;;5042894;28;20617;-90
2022/09/19 02:32:35;;;;;;;0.77;0.77;;;9.00;99.90;9.80;96236.00;;;;5037499;28;20204;-90
2022/09/19 02:35:34;;;;;;;0.90;0.70;;;9.00;99.90;10.00;96218.00;;;;5036004;28;20573;-89
2022/09/19 02:38:33;;;;;;;1.17;0.63;;;8.90;99.90;10.10;96223.00;;;;5045398;28;20176;-89
2022/09/19 02:41:26;;;;;;;0.50;0.50;;;8.80;99.90;9.70;96235.00;;;;5046782;28;20309;-90
2022/09/19 02:44:21;;;;;;;0.60;0.50;;;8.80;99.90;9.80;96218.00;;;;5034212;28;20288;-89
2022/09/19 02:47:17;;;;;;;2.00;0.43;;;8.80;99.90;9.80;96223.00;;;;5041960;28;20276;-89
2022/09/19 02:50:13;;;;;;;0.70;0.70;;;8.80;99.90;9.90;96228.00;;;;5034940;28;20252;-89
2022/09/19 02:53:08;;;;;;;0.60;0.50;;;8.70;99.90;9.70;96232.00;;;;5033559;28;20201;-89
2022/09/19 02:56:02;;;;;;;0.57;0.50;;;8.70;99.90;9.60;96235.00;;;;5033146;28;20201;-90
2022/09/19 02:58:56;;;;;;;0.57;0.57;;;8.70;99.90;9.70;96240.00;;;;5041389;28;20804;-89
2022/09/19 03:01:50;;;;;;;0.73;0.73;;;8.60;99.90;9.70;96245.00;;;;5045512;28;20309;-90
2022/09/19 03:04:44;;;;;;;3.13;2.60;;;8.60;99.90;9.70;96254.00;;;;5050131;28;20200;-89
2022/09/19 03:07:37;;;;;;;3.30;1.03;;;8.60;99.90;9.50;96247.00;;;;5049654;28;20208;-89
2022/09/19 03:10:31;;;;;;;2.00;0.63;;;8.50;99.90;9.50;96251.00;;;;5043936;28;20229;-89
2022/09/19 03:13:23;;;;;;;2.43;0.70;;;8.50;99.90;9.60;96251.00;;;;5033214;28;20232;-89
2022/09/19 03:16:15;;;;;;;0.87;0.70;;;8.40;99.90;9.30;96248.00;;;;5034157;28;20275;-90
2022/09/19 03:19:06;;;;;;;3.80;0.70;;;8.40;99.90;9.00;96264.00;;;;5037061;28;20201;-89
2022/09/19 03:21:56;;;;;;;0.50;0.50;;;8.40;99.90;8.90;96249.00;;;;5038782;28;20224;-89
2022/09/19 03:24:44;;;;;;;0.60;0.60;;;8.20;99.90;9.30;96251.00;;;;5048347;28;20731;-90
2022/09/19 03:27:33;;;;;;;0.70;0.70;;;8.20;99.90;9.30;96248.00;;;;5048787;28;20193;-90
2022/09/19 03:30:24;;;;;;;0.67;0.67;;;8.20;99.90;9.30;96249.00;;;;5042191;28;20310;-89
2022/09/19 03:33:15;;;;;;;0.80;0.77;;;8.20;99.90;9.20;96257.00;;;;5036500;28;20208;-90
2022/09/19 03:36:07;;;;;;;0.70;0.70;;;8.20;99.90;9.30;96247.00;;;;5039074;28;20554;-90
2022/09/19 03:39:01;;;;;;;1.00;0.80;;;8.20;99.90;9.10;96249.00;;;;5032200;28;20196;-90
2022/09/19 03:41:51;;;;;;;0.80;0.80;;;8.20;99.90;9.00;96261.00;;;;5033221;28;20229;-90
2022/09/19 03:44:40;;;;;;;0.57;0.57;;;8.10;99.90;9.20;96260.00;;;;5033541;28;20201;-90
2022/09/19 03:47:30;;;;;;;1.27;0.80;;;8.10;99.90;9.00;96269.00;;;;5044048;28;20204;-90
2022/09/19 03:50:19;;;;;;;0.80;0.80;;;8.00;99.90;8.90;96268.00;;;;5037311;28;20239;-89
2022/09/19 03:53:08;;;;;;;1.00;0.70;;;8.00;99.90;8.70;96269.00;;;;5042007;28;20694;-89
2022/09/19 03:55:57;;;;;;;0.60;0.60;;;8.00;99.90;9.00;96270.00;;;;5038430;28;20193;-89
2022/09/19 03:58:46;;;;;;;1.67;0.70;;;7.90;99.90;8.80;96261.00;;;;5040506;28;20212;-89
2022/09/19 04:01:35;;;;;;;1.13;0.83;;;7.90;99.90;8.70;96262.00;;;;5043014;28;20307;-89
2022/09/19 04:04:25;;;;;;;0.90;0.90;;;7.90;99.90;8.50;96275.00;;;;5038948;28;20208;-89
2022/09/19 04:07:15;;;;;;;0.50;0.50;;;7.80;99.90;8.40;96272.00;;;;5029788;28;20193;-88
2022/09/19 04:10:05;;;;;;;0.67;0.67;;;7.70;99.90;8.10;96280.00;;;;5029299;28;20223;-88
2022/09/19 04:12:56;;;;;;;0.60;0.50;;;7.60;99.90;8.20;96279.00;;;;5040865;28;20677;-88
2022/09/19 04:15:46;;;;;;;1.33;0.80;;;7.50;99.90;8.00;96269.00;;;;5043000;28;20197;-86
2022/09/19 04:18:35;;;;;;;0.83;0.80;;;7.60;99.90;8.30;96269.00;;;;5041828;28;20197;-88
2022/09/19 04:21:25;;;;;;;1.43;0.63;;;7.40;99.90;8.50;96264.00;;;;5041869;28;20212;-88
2022/09/19 04:24:15;;;;;;;3.07;0.70;;;7.40;99.90;8.60;96280.00;;;;5052054;28;20283;-88
2022/09/19 04:27:06;;;;;;;2.20;0.80;;;7.50;99.90;8.40;96273.00;;;;5040634;28;20288;-87
2022/09/19 04:29:55;;;;;;;0.50;0.50;;;7.40;99.90;8.20;96285.00;;;;5032512;28;20303;-89
2022/09/19 04:32:43;;;;;;;1.00;0.90;;;7.40;99.90;8.00;96281.00;;;;5029025;28;20224;-87
2022/09/19 04:35:35;;;;;;;1.07;0.47;;;7.40;99.90;8.00;96303.00;;;;5042132;28;20572;-88
2022/09/19 04:38:25;;;;;;;2.30;0.73;;;7.70;99.90;7.70;96290.00;;;;5047164;28;20257;-86
2022/09/19 04:41:14;;;;;;;0.97;0.60;;;7.30;99.90;7.70;96310.00;;;;5040743;28;20719;-87
2022/09/19 04:44:05;;;;;;;0.73;0.73;;;7.20;99.90;8.00;96302.00;;;;5044473;28;20217;-88
2022/09/19 04:46:54;;;;;;;2.03;0.50;;;7.10;99.90;7.90;96328.00;;;;5029951;28;20201;-88
2022/09/19 04:49:42;;;;;;;2.67;0.97;;;7.20;99.90;8.40;96331.00;;;;5029476;28;20693;-88
2022/09/19 04:52:31;;;;;;;1.57;1.13;;;7.20;99.90;8.30;96320.00;;;;5029582;28;20197;-88
2022/09/19 04:55:21;;;;;;;10.83;2.87;;;7.20;99.90;8.20;96318.00;;;;5029389;28;20201;-88
2022/09/19 04:58:10;;;;;;;4.27;3.23;;;7.30;99.90;8.00;96329.00;;;;5043960;28;20279;-87
2022/09/19 05:00:59;;;;;;;2.43;1.83;;;7.30;99.90;8.00;96336.00;;;;5048980;28;20216;-89
2022/09/19 05:03:48;;;;;;;4.73;3.37;;;7.30;99.90;8.20;96351.00;;;;5033082;28;20695;-88
2022/09/19 05:06:37;;;;;;;2.67;2.07;;;7.20;99.90;7.90;96340.00;;;;5030294;28;20248;-87
2022/09/19 05:09:26;;;;;;;1.47;1.23;;;7.20;99.90;7.90;96335.00;;;;5029333;28;20222;-87
2022/09/19 05:12:16;;;;;;;0.77;0.77;;;7.20;99.90;8.20;96345.00;;;;5036131;28;20197;-88
2022/09/19 05:15:06;;;;;;;0.70;0.60;;;7.20;99.90;8.50;96358.00;;;;5048702;28;20247;-88
2022/09/19 05:17:55;;;;;;;1.03;1.00;;;7.30;99.90;8.40;96358.00;;;;5042105;28;20700;-87
2022/09/19 05:20:44;;;;;;;2.97;1.87;;;7.30;99.90;7.90;96353.00;;;;5041219;28;20221;-89
2022/09/19 05:23:33;;;;;;;0.97;0.87;;;7.30;99.90;8.00;96366.00;;;;5034743;28;20217;-88
2022/09/19 05:26:22;;;;;;;1.33;0.80;;;7.30;99.90;8.30;96355.00;;;;5043321;28;20204;-87
2022/09/19 05:29:13;;;;;;;3.43;0.87;;;7.30;99.90;8.50;96372.00;;;;5037550;28;20193;-88
2022/09/19 05:32:04;;;;;;;0.70;0.70;;;7.40;99.90;8.20;96366.00;;;;5046596;28;20221;-88
2022/09/19 05:35:00;;;;;;;0.87;0.80;;;7.40;99.90;7.90;96361.00;;;;5039655;28;20208;-88
2022/09/19 05:37:49;;;;;;;4.63;0.90;;;7.40;99.90;7.80;96375.00;;;;5039080;28;20197;-88
2022/09/19 05:40:38;;;;;;;5.30;0.90;;;7.30;99.90;7.70;96362.00;;;;5038370;28;20655;-88
2022/09/19 05:43:28;;;;;;;2.10;0.97;;;7.30;99.90;7.80;96362.00;;;;5041212;28;20224;-87
2022/09/19 05:46:20;;;;;;;1.53;0.90;;;7.30;99.90;8.20;96366.00;;;;5040332;28;20295;-89
2022/09/19 05:49:09;;;;;;;0.97;0.60;;;7.30;99.90;8.10;96378.00;;;;5041834;28;20208;-90
2022/09/19 05:53:51;;;;;;;1.50;0.60;;;7.40;99.90;8.10;96365.00;;;;5036758;28;20217;-88
2022/09/19 05:55:07;;;;;;;0.67;0.67;;;7.40;99.90;8.30;96353.00;;;;5034912;28;20682;-88
2022/09/19 05:57:58;;;;;;;6.50;0.83;;;7.50;99.90;8.30;96359.00;;;;5040098;28;20294;-88
2022/09/19 06:00:47;;;;;;;0.97;0.60;;;7.50;99.90;8.70;96365.00;;;;5045944;28;20227;-88
2022/09/19 06:03:38;;;;;;;0.70;0.70;;;7.70;99.90;9.30;96373.00;;;;5041229;28;20223;-88
2022/09/19 06:06:27;;;;;;;1.33;0.93;;;7.90;99.90;9.30;96365.00;;;;5042663;28;20196;-88
2022/09/19 06:09:16;;;;;;;1.13;0.77;;;8.20;99.90;9.60;96357.00;;;;5032418;28;20235;-88
2022/09/19 06:12:05;;;;;;;1.07;0.80;;;8.40;99.90;9.70;96382.00;;;;5040687;28;20216;-87
2022/09/19 06:14:54;;;;;;;1.27;1.00;;;8.60;99.90;10.00;96389.00;;;;5032010;28;20697;-90
2022/09/19 06:17:43;;;;;;;0.50;0.50;;;8.70;99.90;9.70;96367.00;;;;5035395;28;20220;-87
2022/09/19 06:20:33;;;;;;;0.53;0.53;;;8.80;99.90;10.00;96379.00;;;;5037931;28;20268;-88
2022/09/19 06:23:22;;;;;;;0.70;0.70;;;8.90;99.90;10.00;96402.00;;;;5045798;28;20252;-87
2022/09/19 06:26:11;;;;;;;0.83;0.70;;;9.00;99.90;9.70;96379.00;;;;5044619;28;20685;-89
2022/09/19 06:29:01;;;;;;;1.53;1.17;;;9.00;99.90;10.10;96377.00;;;;5042937;28;20193;-87
2022/09/19 06:31:49;;;;;;;0.57;0.57;;;9.10;99.90;10.20;96389.00;;;;5039066;28;20239;-87
2022/09/19 06:34:38;;;;;;;0.83;0.83;;;9.20;99.90;11.10;96384.00;;;;5045593;28;20196;-88
2022/09/19 06:37:43;;;;;;;6.90;0.83;;;9.40;99.90;11.00;96384.00;;;;5044348;28;20254;-89
2022/09/19 06:40:32;;;;;;;3.47;0.90;;;9.70;99.90;11.20;96399.00;;;;5036217;28;20644;-88
2022/09/19 06:43:21;;;;;;;0.30;0.30;;;9.90;99.90;11.60;96380.00;;;;5039822;28;20229;-87
2022/09/19 06:46:10;;;;;;;0.40;0.40;;;10.20;99.90;12.40;96382.00;;;;5038090;28;20192;-88
2022/09/19 06:48:59;;;;;;;0.20;0.20;;;10.70;99.90;12.50;96375.00;;;;5043272;28;20204;-88
2022/09/19 06:51:48;;;;;;;0.27;0.20;;;11.10;99.90;12.70;96375.00;;;;5041489;28;20216;-88
2022/09/19 06:54:38;;;;;;;0.20;0.20;;;11.50;99.90;13.00;96379.00;;;;5047927;28;20579;-89
2022/09/19 06:57:27;;;;;;;0.20;0.20;;;11.70;99.90;13.30;96398.00;;;;5043465;28;20208;-88
2022/09/19 07:00:16;;;;;;;0.20;0.20;;;11.90;99.90;13.40;96389.00;;;;5037696;28;20225;-88
2022/09/19 07:03:09;;;;;;;0.20;0.20;;;12.10;99.90;13.10;96374.00;;;;5040423;28;20193;-87
2022/09/19 07:05:59;;;;;;;0.27;0.20;;;12.20;98.10;13.60;96387.00;;;;5038719;28;20763;-88
2022/09/19 07:08:48;;;;;;;0.20;0.20;;;12.30;97.90;13.60;96383.00;;;;5045039;28;20208;-88
2022/09/19 07:11:39;;;;;;;0.30;0.20;;;12.50;94.10;13.40;96397.00;;;;5033599;28;20221;-88
2022/09/19 07:14:29;;;;;;;0.47;0.40;;;12.60;93.50;13.70;96398.00;;;;5032920;28;20197;-88
2022/09/19 07:17:18;;;;;;;0.30;0.30;;;12.70;91.10;13.40;96390.00;;;;5031046;28;20216;-91
2022/09/19 07:20:07;;;;;;;0.20;0.20;;;12.60;90.30;13.40;96389.00;;;;5042195;28;20192;-86
2022/09/19 07:23:01;;;;;;;0.50;0.40;;;12.80;89.10;13.60;96390.00;;;;5033699;28;20205;-88
2022/09/19 07:25:49;;;;;;;1.60;0.40;;;12.90;85.40;13.90;96416.00;;;;5042766;28;20229;-89
2022/09/19 07:28:39;;;;;;;0.37;0.37;;;13.00;84.30;14.20;96410.00;;;;5044898;28;20208;-88
2022/09/19 07:31:29;;;;;;;0.37;0.27;;;13.10;81.30;14.70;96397.00;;;;5041393;28;20227;-89
2022/09/19 07:34:18;;;;;;;0.30;0.30;;;13.30;81.50;15.00;96409.00;;;;5036340;28;20211;-88
2022/09/19 07:37:06;;;;;;;0.20;0.20;;;13.50;83.30;14.80;96395.00;;;;5038721;28;20202;-89
2022/09/19 07:39:55;;;;;;;0.30;0.30;;;13.50;79.40;14.30;96391.00;;;;5046971;28;20228;-88
2022/09/19 07:42:51;;;;;;;0.37;0.23;;;13.60;79.20;14.80;96406.00;;;;5043035;28;20212;-90
2022/09/19 07:45:45;;;;;;;0.60;0.30;;;13.60;79.30;15.40;96405.00;;;;5033645;28;20279;-91
2022/09/19 07:48:34;;;;;;;0.33;0.33;;;13.80;79.10;15.00;96407.00;;;;5044700;28;20193;-89
2022/09/19 07:51:23;;;;;;;0.40;0.40;;;13.80;77.70;14.70;96398.00;;;;5047877;28;20641;-88
2022/09/19 07:54:12;;;;;;;1.00;0.40;;;13.90;78.30;15.30;96404.00;;;;5035498;28;20690;-90
2022/09/19 07:57:01;;;;;;;0.20;0.20;;;13.90;77.60;15.10;96419.00;;;;5038161;28;20238;-89
2022/09/19 07:59:50;;;;;;;1.07;0.67;;;14.10;78.10;15.60;96410.00;;;;5038884;28;20302;-89
2022/09/19 08:02:40;;;;;;;0.30;0.30;;;14.20;77.70;15.10;96407.00;;;;5047314;28;20209;-88
2022/09/19 08:05:34;;;;;;;0.20;0.20;;;14.30;76.20;15.40;96415.00;;;;5051817;28;20698;-89
2022/09/19 08:08:24;;;;;;;0.30;0.30;;;14.40;72.90;15.60;96436.00;;;;5089190;22;20242;-87
2022/09/19 08:11:13;;;;;;;0.20;0.20;;;;;15.70;96452.00;;;;5096712;28;20198;-86
2022/09/19 08:14:02;;;;;;;0.27;0.27;;;14.50;75.90;15.60;96443.00;;;;5079497;28;20207;-88
2022/09/19 08:16:55;;;;;;;0.20;0.20;;;14.60;76.70;15.50;96426.00;;;;5078505;28;20184;-88
2022/09/19 08:19:49;;;;;;;0.77;0.40;;;14.70;72.40;16.40;96437.00;;;;5080660;28;20188;-88
2022/09/19 08:22:58;;;;;;;0.30;0.30;;;15.00;74.90;17.00;96435.00;;;;5073179;28;20690;-89
2022/09/19 08:25:53;;;;;;;0.30;0.30;;;14.80;71.40;16.10;96430.00;;;;5079038;28;20224;-87
2022/09/19 08:28:42;;;;;;;0.57;0.30;;;13.10;71.80;17.60;96429.00;;;;5077381;28;20655;-88
2022/09/19 08:31:31;;;;;;;1.10;0.43;;;15.50;76.20;17.40;96440.00;;;;5083138;28;20325;-86
2022/09/19 08:34:20;;;;;;;0.30;0.30;;;15.80;71.50;18.00;96455.00;;;;5077069;28;20211;-88
2022/09/19 08:37:11;;;;;;;0.40;0.30;;;16.00;76.40;17.30;96455.00;;;;5072309;28;20204;-88
2022/09/19 08:40:18;;;;;;;0.37;0.23;;;16.20;72.60;17.30;96471.00;;;;5081723;28;20188;-87
2022/09/19 08:43:12;;;;;;;0.20;0.20;;;16.20;72.80;17.60;96461.00;;;;5080943;28;20928;-87
2022/09/19 08:46:21;;;;;;;0.20;0.20;;;16.10;70.70;18.00;96483.00;;;;5079543;28;20225;-88
2022/09/19 08:49:15;;;;;;;0.20;0.20;;;16.30;72.90;18.00;96480.00;;;;5073970;28;20196;-88
2022/09/19 08:52:12;;;;;;;0.20;0.20;;;16.40;70.70;18.20;96484.00;;;;5073634;28;20227;-87
2022/09/19 08:55:08;;;;;;;0.20;0.20;;;16.60;69.40;18.90;96475.00;;;;5074614;28;20207;-89
2022/09/19 08:57:59;;;;;;;0.20;0.10;;;17.00;69.60;18.40;96483.00;;;;5074175;28;20200;-86
2022/09/19 09:00:49;;;;;;;0.20;0.20;;;17.10;69.50;19.20;96488.00;;;;5078189;28;20206;-87
2022/09/19 09:03:43;;;;;;;0.20;0.10;;;17.20;69.80;19.40;96477.00;;;;5067656;28;20196;-87
2022/09/19 09:06:44;;;;;;;0.20;0.20;;;17.70;68.90;19.50;96487.00;;;;5080689;28;20207;-88
2022/09/19 09:09:56;;;;;;;0.20;0.10;;;17.80;68.10;19.70;96495.00;;;;5081400;28;20187;-87
2022/09/19 09:12:59;;;;;;;0.20;0.20;;;17.90;67.00;19.30;96478.00;;;;5079679;28;20226;-86
2022/09/19 09:16:05;;;;;;;1.70;0.27;;;17.90;65.90;19.30;96491.00;;;;5067901;28;20299;-87
2022/09/19 09:19:28;;;;;;;1.13;0.30;;;17.40;63.90;19.10;96492.00;;;;5078654;28;20200;-88
2022/09/19 09:22:24;;;;;;;0.30;0.27;;;19.20;64.40;17.60;96474.00;;;;5080234;28;20215;-87
2022/09/19 09:25:24;;;;;;;0.20;0.20;;;17.80;60.60;19.00;96474.00;;;;5077414;28;20214;-87
2022/09/19 09:28:26;;;;;;;0.20;0.20;;;17.80;65.60;19.20;96501.00;;;;5070801;28;20481;-89
2022/09/19 09:31:24;;;;;;;0.20;0.20;;;18.10;65.10;18.10;96534.00;;;;5080138;28;20210;-86
2022/09/19 09:34:22;;;;;;;0.20;0.20;;;17.70;61.80;17.30;96521.00;;;;5079210;28;20199;-88
2022/09/19 09:37:41;;;;;;;0.20;0.20;;;17.50;63.50;17.70;96528.00;;;;5081909;28;21243;-88
2022/09/19 09:44:10;;;;;;;0.40;0.30;;;16.30;63.50;16.90;96516.00;;;;5082630;28;20637;-88
2022/09/19 09:47:18;;;;;;;0.30;0.23;;;16.10;63.60;17.70;96537.00;;;;5077809;28;20205;-85
2022/09/19 09:51:00;;;;;;;0.20;0.20;;;16.40;66.70;16.40;96554.00;;;;5078217;28;20196;-86
2022/09/19 09:56:14;;;;;;;1.47;0.67;;;16.30;64.00;18.50;96551.00;;;;5071755;28;20200;-88
2022/09/19 09:57:36;;;;;;;0.20;0.20;;;16.70;65.30;19.40;96567.00;;;;5080359;28;20251;-88
2022/09/19 10:03:48;;;;;;;0.20;0.20;;;17.30;63.80;18.80;96538.00;;;;5085779;28;20689;-86
2022/09/19 10:09:56;;;;;;;0.20;0.20;;;18.10;63.70;19.80;96541.00;;;;5078923;28;20195;-86
2022/09/19 10:12:59;;;;;;;0.20;0.20;;;18.20;65.00;18.80;96552.00;;;;5080669;28;20219;-90
2022/09/19 10:15:57;;;;;;;0.30;0.27;;;18.10;61.40;17.50;96577.00;;;;5080947;28;20223;-86
2022/09/19 10:18:56;;;;;;;0.20;0.20;;;17.60;62.00;19.40;96589.00;;;;5084468;28;20807;-86
2022/09/19 10:21:46;;;;;;;0.20;0.20;;;17.60;64.40;18.30;96538.00;;;;5079937;28;20216;-86
2022/09/19 10:24:50;;;;;;;0.20;0.20;;;17.60;65.40;19.20;96554.00;;;;5080335;28;20206;-87
2022/09/19 10:27:41;;;;;;;0.23;0.20;;;17.90;66.10;19.60;96602.00;;;;5075317;28;20218;-85
2022/09/19 10:30:41;;;;;;;0.20;0.20;;;17.90;65.80;20.10;96544.00;;;;5070699;28;20263;-87
2022/09/19 10:33:41;;;;;;;0.30;0.30;;;18.20;66.10;20.30;96594.00;;;;5083678;28;20203;-86
2022/09/19 10:36:34;;;;;;;0.43;0.20;;;18.40;65.90;20.00;96596.00;;;;5071697;28;20246;-85
2022/09/19 10:39:25;;;;;;;0.20;0.20;;;18.60;66.60;20.10;96596.00;;;;5075269;28;20200;-87
2022/09/19 10:42:47;;;;;;;0.30;0.20;;;18.60;66.10;20.70;96574.00;;;;5079597;28;20230;-87
2022/09/19 10:45:47;;;;;;;0.30;0.30;;;18.80;66.50;19.30;96586.00;;;;5053396;28;20203;-87
2022/09/19 10:48:38;;;;;;;0.53;0.20;;;18.80;62.90;20.40;96564.00;;;;5079072;28;20184;-87
2022/09/19 10:51:34;;;;;;;0.40;0.20;;;19.50;62.40;18.90;96597.00;;;;5074535;28;20226;-85
2022/09/19 10:54:33;;;;;;;0.20;0.20;;;18.60;61.50;21.00;96605.00;;;;5088387;28;20195;-86
2022/09/19 10:57:41;;;;;;;2.40;0.20;;;18.90;63.30;21.40;96606.00;;;;5080490;28;20539;-86
2022/09/19 11:00:32;;;;;;;0.43;0.20;;;19.10;63.20;21.40;96559.00;;;;5071684;28;20184;-86
2022/09/19 11:03:26;;;;;;;0.20;0.20;;;19.40;65.30;20.40;96541.00;;;;5085725;28;20219;-87
2022/09/19 11:06:18;;;;;;;0.20;0.10;;;19.50;60.20;20.90;96534.00;;;;5084910;28;20704;-87
2022/09/19 11:09:26;;;;;;;0.50;0.20;;;19.60;63.10;19.80;96534.00;;;;5071687;28;20211;-88
2022/09/19 11:12:18;;;;;;;4.43;0.23;;;19.60;59.40;20.90;96616.00;;;;5079088;28;20215;-88
2022/09/19 11:15:16;;;;;;;1.40;0.20;;;20.00;61.20;21.50;96606.00;;;;5081365;28;20211;-87
2022/09/19 11:18:16;;;;;;;0.20;0.20;;;19.90;59.10;20.80;96528.00;;;;5080456;28;20219;-85
2022/09/19 11:21:25;;;;;;;1.20;0.30;;;19.60;58.40;20.90;96603.00;;;;5085634;28;20571;-86
2022/09/19 11:24:42;;;;;;;0.20;0.10;;;18.50;59.10;22.70;96539.00;;;;5071154;28;20195;-88
2022/09/19 11:28:00;;;;;;;0.20;0.10;;;20.20;59.50;22.60;96546.00;;;;5076463;28;20204;-88
2022/09/19 11:31:02;;;;;;;1.80;0.10;;;20.60;57.60;21.40;96602.00;;;;5069717;28;20566;-85
2022/09/19 11:33:57;;;;;;;2.37;0.20;;;20.60;59.00;22.00;96550.00;;;;5077039;28;20214;-87
2022/09/19 11:37:25;;;;;;;0.20;0.20;;;20.60;59.20;21.50;96537.00;;;;5074107;28;20648;-85
2022/09/19 11:40:32;;;;;;;0.20;0.10;;;20.60;58.20;21.60;96605.00;;;;5079010;28;20196;-85
2022/09/19 11:43:44;;;;;;;0.20;0.10;;;20.80;58.00;23.40;96545.00;;;;5080515;28;20211;-85
2022/09/19 11:46:42;;;;;;;0.20;0.13;;;21.00;59.60;24.60;96607.00;;;;5078626;28;20196;-86
2022/09/19 11:50:16;;;;;;;0.30;0.13;;;21.60;58.10;20.20;96611.00;;;;5077654;28;20195;-86
2022/09/19 11:53:28;;;;;;;0.23;0.10;;;21.20;54.90;20.30;96618.00;;;;5082720;28;20227;-85
2022/09/19 11:56:40;;;;;;;0.50;0.10;;;20.30;55.80;20.20;96547.00;;;;5083342;28;20223;-85
2022/09/19 11:59:49;;;;;;;0.20;0.20;;;20.10;56.70;23.40;96561.00;;;;5079840;28;20200;-87
2022/09/19 12:03:16;;;;;;;0.20;0.10;;;20.60;57.80;21.90;96559.00;;;;5100963;22;20291;-89
2022/09/19 12:06:20;;;;;;;0.60;0.10;;;20.80;54.80;22.80;96566.00;;;;5070779;28;20685;-88
2022/09/19 12:09:18;;;;;;;0.20;0.10;;;21.10;56.20;23.60;96576.00;;;;5086405;28;20215;-88
2022/09/19 12:12:13;;;;;;;1.37;0.20;;;21.70;55.90;21.80;96560.00;;;;5068634;28;20230;-88
2022/09/19 12:18:10;;;;;;;0.27;0.20;;;21.10;55.20;20.20;96560.00;;;;4997872;28;20213;-75
2022/09/19 12:21:02;;;;;;;3.03;0.10;;;20.50;55.60;18.90;96538.00;;;;5001537;28;20194;-70
2022/09/19 12:27:12;;;;;;;0.20;0.10;;;20.00;56.20;22.20;96562.00;;;;4984271;28;20253;-73
2022/09/19 12:30:07;;;;;;;0.20;0.10;;;20.20;55.40;22.60;96551.00;;;;4986453;28;20194;-74
2022/09/19 12:33:02;;;;;;;0.30;0.20;;;20.70;55.20;20.20;96539.00;;;;4974779;28;20210;-71
2022/09/19 12:35:57;;;;;;;0.20;0.10;;;20.30;55.40;20.60;96539.00;;;;4986653;28;20253;-72
2022/09/19 12:38:53;;;;;;;1.53;0.20;;;19.90;55.00;21.90;96554.00;;;;4988638;28;20199;-75
2022/09/19 12:41:49;;;;;;;0.20;0.10;;;20.10;55.10;20.00;96522.00;;;;4989835;28;20242;-71
2022/09/19 12:44:51;;;;;;;0.20;0.10;;;20.20;54.90;20.00;96552.00;;;;4976456;28;20227;-73
2022/09/19 12:47:57;;;;;;;0.40;0.10;;;19.40;54.80;23.10;96544.00;;;;4984261;28;20763;-74
2022/09/19 12:50:51;;;;;;;0.20;0.10;;;20.10;55.80;23.10;96534.00;;;;4997448;28;20244;-73
2022/09/19 12:53:46;;;;;;;0.20;0.10;;;21.00;53.60;23.70;96562.00;;;;4988468;28;20238;-74
2022/09/19 12:56:39;;;;;;;0.20;0.10;;;21.40;53.60;25.00;96537.00;;;;4974883;28;20654;-71
2022/09/19 12:59:27;;;;;;;0.20;0.10;;;22.00;54.20;23.20;96548.00;;;;4987601;28;20209;-73
2022/09/19 13:02:28;;;;;;;0.20;0.10;;;22.10;51.80;23.50;96534.00;;;;4984893;28;20207;-75
2022/09/19 13:05:23;;;;;;;0.20;0.10;;;22.20;51.60;21.60;96532.00;;;;4987818;28;20217;-75
2022/09/19 13:08:17;;;;;;;0.20;0.00;;;21.70;51.30;19.90;96505.00;;;;4986886;28;20214;-73
2022/09/19 13:11:13;;;;;;;0.47;0.10;;;20.60;52.60;22.00;96541.00;;;;4972920;28;20269;-73
2022/09/19 13:14:13;;;;;;;0.20;0.20;;;20.20;53.40;24.50;96536.00;;;;4979491;28;20254;-76
2022/09/19 13:23:32;;;;;;;0.97;0.33;;;21.30;51.90;21.10;96495.00;;;;4971877;28;20234;-72
2022/09/19 13:26:32;;;;;;;0.20;0.10;;;20.90;51.50;19.10;96507.00;;;;4976942;28;20235;-65
2022/09/19 13:29:47;;;;;;;3.23;0.20;;;19.60;52.70;20.60;96515.00;;;;4982387;28;20206;-74
2022/09/19 13:32:54;;;;;;;0.20;0.10;;;19.30;53.20;20.80;96536.00;;;;4987834;28;20246;-74